KLNS

Lancaster Airport

Lancaster, Pennsylvania, USA
KLNS 221555Z 2216/2312 32007KT P6SM SCT250 FM230500 11003KT P6SM OVC090 FM231100 10003KT P6SM OVC070 WS020/23035KT
Issued Valid From Valid To
Jan-22 @ 15:55 UTC
(60 minutes ago)
Jan-22 @ 16:00 UTC
(55 minutes ago)
Jan-23 @ 12:00 UTC
(in 19 hours)
Jan-22 @ 16:00 to Jan-23 @ 05:00
KLNS 221555Z 2216/2312 32007KT P6SM SCT250
Wind Visibility Clouds
320° at 7 knots Greater than 6 miles
  • Scattered at 25,000' AGL
From Jan-23 @ 05:00 to Jan-23 @ 11:00
FM230500 11003KT P6SM OVC090
Wind Visibility Clouds
110° at 3 knots Greater than 6 miles
  • Overcast at 9,000' AGL
From Jan-23 @ 11:00 to Jan-23 @ 12:00
FM231100 10003KT P6SM OVC070 WS020/23035KT
Wind Visibility Clouds
100° at 3 knots
 Wind shear 2,000' AGL from 230° at 35 knots
Greater than 6 miles
  • Overcast at 7,000' AGL
KLNS 221555Z 2216/2312 32007KT P6SM SCT250 FM230500 11003KT P6SM OVC090 FM231100 10003KT P6SM OVC070 WS020/23035KT
Issued Jan-22 @ 15:55 UTC
(60 minutes ago)
Valid From Jan-22 @ 16:00 UTC
(55 minutes ago)
Valid To Jan-23 @ 12:00 UTC
(in 19 hours)
Jan-22 @ 16:00 - Jan-23 @ 05:00
Wind Visibility
320° at 7 knots Greater than 6 miles
Clouds
  • Scattered at 25,000' AGL
From Jan-23 @ 05:00 - Jan-23 @ 11:00
Wind Visibility
110° at 3 knots Greater than 6 miles
Clouds
  • Overcast at 9,000' AGL
From Jan-23 @ 11:00 - Jan-23 @ 12:00
Wind Visibility
100° at 3 knots Greater than 6 miles
Clouds
  • Overcast at 7,000' AGL